Time;durP1;ratioP1;P1;durP2;ratioP2;P2;SDS_P1;SDS_P2;PMS_P1;PMS_P2;Temp;Humidity;BMP_temperature;BMP_pressure;BME280_temperature;BME280_humidity;BME280_pressure;Samples;Min_cycle;Max_cycle;Signal;HPM_P1;HPM_P2
2023/09/30 00:00:15;;;;;;;37.93;11.40;;;;;;;;;;5051613;28;20139;-63
2023/09/30 00:02:41;;;;;;;35.40;9.70;;;;;;;;;;5063636;28;20472;-61
2023/09/30 00:05:08;;;;;;;39.30;12.10;;;;;;;;;;5070908;28;20517;-61
2023/09/30 00:07:34;;;;;;;37.77;10.90;;;;;;;;;;5071169;28;20049;-62
2023/09/30 00:10:00;;;;;;;34.53;10.77;;;;;;;;;;5071254;28;20093;-61
2023/09/30 00:12:26;;;;;;;32.17;11.20;;;;;;;;;;5053140;28;20364;-62
2023/09/30 00:14:53;;;;;;;42.70;11.20;;;;;;;;;;5051011;28;20037;-61
2023/09/30 00:17:19;;;;;;;30.63;10.10;;;;;;;;;;5050633;28;20347;-62
2023/09/30 00:19:45;;;;;;;39.53;10.87;;;;;;;;;;5051188;28;20055;-61
2023/09/30 00:22:11;;;;;;;31.43;11.60;;;;;;;;;;5050795;28;20056;-62
2023/09/30 00:24:37;;;;;;;38.63;10.97;;;;;;;;;;5050996;28;20056;-62
2023/09/30 00:27:03;;;;;;;37.47;11.07;;;;;;;;;;5050108;28;20045;-62
2023/09/30 00:29:29;;;;;;;34.20;10.07;;;;;;;;;;5051146;28;20095;-62
2023/09/30 00:31:55;;;;;;;32.00;10.57;;;;;;;;;;5049241;28;20450;-61
2023/09/30 00:34:21;;;;;;;32.90;10.40;;;;;;;;;;5049916;28;20060;-61
2023/09/30 00:36:47;;;;;;;36.03;10.43;;;;;;;;;;5050280;28;20509;-62
2023/09/30 00:39:13;;;;;;;34.50;9.80;;;;;;;;;;5062916;28;20049;-62
2023/09/30 00:41:39;;;;;;;38.33;10.27;;;;;;;;;;5070249;28;20044;-62
2023/09/30 00:44:07;;;;;;;35.10;10.13;;;;;;;;;;5070839;28;20048;-62
2023/09/30 00:46:36;;;;;;;38.00;10.20;;;;;;;;;;5062142;28;20048;-62
2023/09/30 00:49:02;;;;;;;33.87;10.27;;;;;;;;;;5065356;28;20109;-62
2023/09/30 00:51:29;;;;;;;37.40;9.97;;;;;;;;;;5052422;28;20051;-61
2023/09/30 00:53:56;;;;;;;33.27;9.90;;;;;;;;;;5059161;28;20044;-61
2023/09/30 00:56:24;;;;;;;31.10;9.97;;;;;;;;;;5066201;28;20039;-62
2023/09/30 00:58:51;;;;;;;32.27;10.50;;;;;;;;;;5060620;28;20533;-62
2023/09/30 01:01:17;;;;;;;36.37;10.70;;;;;;;;;;5068870;28;20055;-62
2023/09/30 01:03:43;;;;;;;31.20;10.30;;;;;;;;;;5059919;28;20419;-62
2023/09/30 01:06:09;;;;;;;32.47;10.50;;;;;;;;;;5059862;28;20045;-62
2023/09/30 01:08:35;;;;;;;38.60;10.13;;;;;;;;;;5049693;28;20503;-62
2023/09/30 01:11:01;;;;;;;35.47;9.40;;;;;;;;;;5049468;28;20581;-62
2023/09/30 01:13:34;;;;;;;32.10;9.83;;;;;;;;;;5050000;28;20104;-62
2023/09/30 01:16:09;;;;;;;34.47;9.88;;;;;;;;;;5057337;28;20068;-61
2023/09/30 01:18:35;;;;;;;29.50;10.13;;;;;;;;;;5065964;28;20044;-62
2023/09/30 01:21:05;;;;;;;28.27;9.97;;;;;;;;;;5061578;28;20526;-62
2023/09/30 01:23:37;;;;;;;25.53;10.03;;;;;;;;;;5069600;28;20452;-63
2023/09/30 01:26:13;;;;;;;31.98;11.05;;;;;;;;;;5069706;28;20517;-62
2023/09/30 01:28:39;;;;;;;29.23;10.67;;;;;;;;;;5069779;28;20040;-61
2023/09/30 01:31:05;;;;;;;33.30;11.13;;;;;;;;;;5069206;28;20450;-62
2023/09/30 01:33:32;;;;;;;35.07;9.50;;;;;;;;;;5055075;28;20041;-63
2023/09/30 01:35:59;;;;;;;24.10;9.43;;;;;;;;;;5051548;28;20084;-62
2023/09/30 01:38:25;;;;;;;28.67;11.53;;;;;;;;;;5049697;28;20134;-62
2023/09/30 01:40:51;;;;;;;26.17;9.80;;;;;;;;;;5066854;28;20044;-62
2023/09/30 01:43:17;;;;;;;38.13;10.90;;;;;;;;;;5057425;28;20044;-62
2023/09/30 01:45:44;;;;;;;26.10;10.20;;;;;;;;;;5069387;28;20426;-62
2023/09/30 01:48:10;;;;;;;35.63;10.53;;;;;;;;;;5054953;28;20056;-62
2023/09/30 01:50:40;;;;;;;22.50;8.90;;;;;;;;;;5049104;28;20059;-62
2023/09/30 01:53:07;;;;;;;34.10;8.93;;;;;;;;;;5056478;28;20624;-62
2023/09/30 01:55:33;;;;;;;39.57;11.17;;;;;;;;;;5058189;28;20177;-62
2023/09/30 01:58:00;;;;;;;34.93;10.50;;;;;;;;;;5048665;28;20052;-62
2023/09/30 02:00:28;;;;;;;31.90;11.17;;;;;;;;;;5052250;28;20056;-62
2023/09/30 02:02:54;;;;;;;30.53;9.93;;;;;;;;;;5063921;28;20053;-62
2023/09/30 02:05:20;;;;;;;29.83;10.17;;;;;;;;;;5052889;28;20045;-62
2023/09/30 02:07:46;;;;;;;27.97;10.17;;;;;;;;;;5051493;28;20047;-62
2023/09/30 02:10:12;;;;;;;40.07;10.80;;;;;;;;;;5060019;28;20037;-62
2023/09/30 02:12:38;;;;;;;28.30;10.17;;;;;;;;;;5047920;28;20068;-62
2023/09/30 02:15:04;;;;;;;34.23;11.13;;;;;;;;;;5048921;28;20044;-62
2023/09/30 02:17:30;;;;;;;37.00;9.90;;;;;;;;;;5049072;28;20049;-62
2023/09/30 02:19:56;;;;;;;32.73;10.87;;;;;;;;;;5050961;28;20044;-62
2023/09/30 02:22:23;;;;;;;29.60;9.70;;;;;;;;;;5068817;28;20452;-63
2023/09/30 02:24:49;;;;;;;34.70;11.07;;;;;;;;;;5068142;28;20059;-62
2023/09/30 02:27:15;;;;;;;34.77;11.30;;;;;;;;;;5059917;28;20045;-62
2023/09/30 02:29:41;;;;;;;30.70;10.03;;;;;;;;;;5049108;28;20052;-62
2023/09/30 02:32:07;;;;;;;25.97;10.53;;;;;;;;;;5049113;28;20447;-62
2023/09/30 02:34:33;;;;;;;29.50;11.20;;;;;;;;;;5048507;28;20048;-62
2023/09/30 02:37:00;;;;;;;34.53;10.97;;;;;;;;;;5048565;28;20516;-62
2023/09/30 02:39:26;;;;;;;28.20;11.10;;;;;;;;;;5048172;28;20132;-62
2023/09/30 02:41:52;;;;;;;39.97;12.37;;;;;;;;;;5048256;28;20457;-62
2023/09/30 02:44:18;;;;;;;24.57;9.50;;;;;;;;;;5060593;28;20438;-62
2023/09/30 02:46:44;;;;;;;43.33;11.57;;;;;;;;;;5068477;28;20498;-62
2023/09/30 02:49:10;;;;;;;28.37;10.63;;;;;;;;;;5067101;28;20056;-62
2023/09/30 02:51:36;;;;;;;35.97;11.97;;;;;;;;;;5068006;28;20465;-62
2023/09/30 02:54:03;;;;;;;30.67;10.50;;;;;;;;;;5068607;28;20045;-62
2023/09/30 02:56:30;;;;;;;31.63;11.93;;;;;;;;;;5056258;28;20044;-62
2023/09/30 02:58:56;;;;;;;30.07;11.00;;;;;;;;;;5048238;28;20380;-62
2023/09/30 03:01:22;;;;;;;32.30;10.60;;;;;;;;;;5048193;28;20151;-62
2023/09/30 03:03:48;;;;;;;33.70;10.73;;;;;;;;;;5047656;28;20087;-62
2023/09/30 03:06:15;;;;;;;33.70;12.10;;;;;;;;;;5047400;28;20052;-62
2023/09/30 03:08:41;;;;;;;42.93;12.40;;;;;;;;;;5050304;28;20402;-62
2023/09/30 03:11:07;;;;;;;30.23;10.87;;;;;;;;;;5068020;28;20052;-62
2023/09/30 03:13:33;;;;;;;26.03;10.77;;;;;;;;;;5067693;28;20517;-62
2023/09/30 03:16:01;;;;;;;35.10;11.10;;;;;;;;;;5066962;28;20043;-62
2023/09/30 03:18:28;;;;;;;41.63;13.00;;;;;;;;;;5067984;28;20044;-62
2023/09/30 03:21:00;;;;;;;30.80;11.23;;;;;;;;;;5067067;28;20059;-62
2023/09/30 03:23:30;;;;;;;37.20;11.50;;;;;;;;;;5069414;28;20048;-62
2023/09/30 03:25:59;;;;;;;33.63;11.80;;;;;;;;;;5071535;28;20056;-62
2023/09/30 03:28:25;;;;;;;33.70;11.50;;;;;;;;;;5071672;28;20041;-62
2023/09/30 03:30:51;;;;;;;29.17;11.90;;;;;;;;;;5071483;28;20092;-62
2023/09/30 03:33:17;;;;;;;34.10;10.47;;;;;;;;;;5052788;28;20052;-62
2023/09/30 03:35:44;;;;;;;32.87;11.30;;;;;;;;;;5050769;28;20045;-62
2023/09/30 03:38:12;;;;;;;48.83;12.33;;;;;;;;;;5055307;28;20544;-62
2023/09/30 03:40:38;;;;;;;31.10;10.67;;;;;;;;;;5062679;28;20087;-62
2023/09/30 03:43:10;;;;;;;31.50;11.77;;;;;;;;;;5051363;28;20060;-62
2023/09/30 03:45:39;;;;;;;33.73;12.23;;;;;;;;;;5051113;28;20089;-62
2023/09/30 03:48:06;;;;;;;37.47;12.63;;;;;;;;;;5051721;28;20122;-62
2023/09/30 03:50:32;;;;;;;37.23;14.03;;;;;;;;;;5050894;28;20052;-62
2023/09/30 03:53:02;;;;;;;37.43;13.00;;;;;;;;;;5051110;28;20045;-62
2023/09/30 03:55:29;;;;;;;27.97;11.13;;;;;;;;;;5051401;28;20056;-62
2023/09/30 03:57:56;;;;;;;34.20;12.23;;;;;;;;;;5050942;28;20053;-62
2023/09/30 04:00:22;;;;;;;40.63;13.67;;;;;;;;;;5050947;28;20049;-62
2023/09/30 04:02:49;;;;;;;28.23;11.53;;;;;;;;;;5066351;28;20045;-62
2023/09/30 04:05:16;;;;;;;35.63;12.87;;;;;;;;;;5051008;28;20049;-62
2023/09/30 04:07:42;;;;;;;36.70;14.07;;;;;;;;;;5051043;28;20056;-62
2023/09/30 04:10:09;;;;;;;44.90;14.23;;;;;;;;;;5069001;28;20048;-62
2023/09/30 04:12:35;;;;;;;33.43;14.00;;;;;;;;;;5070857;28;20037;-62
2023/09/30 04:15:03;;;;;;;33.80;12.93;;;;;;;;;;5070006;28;20392;-62
2023/09/30 04:17:29;;;;;;;33.63;13.20;;;;;;;;;;5070696;28;20082;-62
2023/09/30 04:19:55;;;;;;;47.90;15.50;;;;;;;;;;5070972;28;20411;-62
2023/09/30 04:22:21;;;;;;;38.70;14.70;;;;;;;;;;5070575;28;20577;-62
2023/09/30 04:24:50;;;;;;;38.87;13.80;;;;;;;;;;5070732;28;20131;-62
2023/09/30 04:27:16;;;;;;;40.77;14.00;;;;;;;;;;5070112;28;20036;-62
2023/09/30 04:29:43;;;;;;;33.67;13.10;;;;;;;;;;5070509;28;20036;-62
2023/09/30 04:32:09;;;;;;;38.57;14.27;;;;;;;;;;5058607;28;20041;-61
2023/09/30 04:34:35;;;;;;;38.33;12.97;;;;;;;;;;5049096;28;20567;-61
2023/09/30 04:37:01;;;;;;;39.13;13.60;;;;;;;;;;5050099;28;20568;-61
2023/09/30 04:39:27;;;;;;;36.57;13.53;;;;;;;;;;5062590;28;20392;-61
2023/09/30 04:41:55;;;;;;;31.50;13.70;;;;;;;;;;5070433;28;20056;-60
2023/09/30 04:44:22;;;;;;;42.63;14.97;;;;;;;;;;5070045;28;20048;-61
2023/09/30 04:46:48;;;;;;;31.67;14.00;;;;;;;;;;5070001;28;20045;-61
2023/09/30 04:49:15;;;;;;;39.70;14.60;;;;;;;;;;5070276;28;20052;-61
2023/09/30 04:51:41;;;;;;;32.97;15.03;;;;;;;;;;5069850;28;20059;-61
2023/09/30 04:54:08;;;;;;;35.60;15.50;;;;;;;;;;5070468;28;20044;-61
2023/09/30 04:56:35;;;;;;;43.50;15.50;;;;;;;;;;5069816;28;20044;-61
2023/09/30 04:59:02;;;;;;;45.27;16.43;;;;;;;;;;5069799;28;20040;-61
2023/09/30 05:01:28;;;;;;;29.97;15.27;;;;;;;;;;5070036;28;20119;-61
2023/09/30 05:03:54;;;;;;;39.90;15.63;;;;;;;;;;5069672;28;20045;-61
2023/09/30 05:06:21;;;;;;;37.37;17.93;;;;;;;;;;5070057;28;20053;-61
2023/09/30 05:08:47;;;;;;;45.03;18.07;;;;;;;;;;5067826;28;20245;-61
2023/09/30 05:11:13;;;;;;;30.47;15.83;;;;;;;;;;5069740;28;20070;-61
2023/09/30 05:13:40;;;;;;;50.60;19.97;;;;;;;;;;5069442;28;20502;-61
2023/09/30 05:16:07;;;;;;;45.53;17.93;;;;;;;;;;5069636;28;20048;-61
2023/09/30 05:18:33;;;;;;;38.70;16.97;;;;;;;;;;5069811;28;20521;-61
2023/09/30 05:21:00;;;;;;;48.07;20.53;;;;;;;;;;5069383;28;20052;-61
2023/09/30 05:23:26;;;;;;;36.37;17.00;;;;;;;;;;5069617;28;20510;-61
2023/09/30 05:25:52;;;;;;;44.07;19.33;;;;;;;;;;5069001;28;20048;-61
2023/09/30 05:28:20;;;;;;;49.37;20.20;;;;;;;;;;5064396;28;20045;-60
2023/09/30 05:30:46;;;;;;;47.07;20.30;;;;;;;;;;5058262;28;20052;-61
2023/09/30 05:33:14;;;;;;;47.10;20.80;;;;;;;;;;5052001;28;20052;-61
2023/09/30 05:35:40;;;;;;;41.57;18.43;;;;;;;;;;5048630;28;20056;-61
2023/09/30 05:38:07;;;;;;;48.53;19.07;;;;;;;;;;5048852;28;20758;-61
2023/09/30 05:40:33;;;;;;;42.50;19.03;;;;;;;;;;5069200;28;20049;-61
2023/09/30 05:43:00;;;;;;;48.03;20.20;;;;;;;;;;5069139;28;20051;-61
2023/09/30 05:45:26;;;;;;;56.90;21.97;;;;;;;;;;5068099;28;20049;-61
2023/09/30 05:47:54;;;;;;;51.67;21.63;;;;;;;;;;5055287;28;20052;-61
2023/09/30 05:50:27;;;;;;;44.50;18.77;;;;;;;;;;5051900;28;20032;-61
2023/09/30 05:52:53;;;;;;;50.00;21.50;;;;;;;;;;5068968;28;20052;-61
2023/09/30 05:55:20;;;;;;;56.83;22.67;;;;;;;;;;5068861;28;20708;-61
2023/09/30 05:57:47;;;;;;;47.43;21.30;;;;;;;;;;5068528;28;20135;-60
2023/09/30 06:00:30;;;;;;;50.47;23.03;;;;;;;;;;5068659;28;20052;-60
2023/09/30 06:02:56;;;;;;;47.88;21.33;;;;;;;;;;5064421;28;20072;-60
2023/09/30 06:05:22;;;;;;;47.07;21.40;;;;;;;;;;5067910;28;20110;-61
2023/09/30 06:07:49;;;;;;;47.23;20.53;;;;;;;;;;5068392;28;20502;-60
2023/09/30 06:10:21;;;;;;;59.03;24.37;;;;;;;;;;5068249;28;20041;-60
2023/09/30 06:12:47;;;;;;;41.50;20.73;;;;;;;;;;5067794;28;20045;-60
2023/09/30 06:15:14;;;;;;;51.03;23.93;;;;;;;;;;5048428;28;20057;-60
2023/09/30 06:17:40;;;;;;;52.30;22.07;;;;;;;;;;5060919;28;20048;-61
2023/09/30 06:20:16;;;;;;;50.40;24.00;;;;;;;;;;5068176;28;20101;-60
2023/09/30 06:22:43;;;;;;;50.83;24.10;;;;;;;;;;5055400;28;20044;-60
2023/09/30 06:25:09;;;;;;;57.57;23.70;;;;;;;;;;5054439;28;20469;-60
2023/09/30 06:27:35;;;;;;;48.87;21.43;;;;;;;;;;5055264;28;20049;-61
2023/09/30 06:30:01;;;;;;;53.27;21.30;;;;;;;;;;5059090;28;20060;-61
2023/09/30 06:32:27;;;;;;;65.27;24.67;;;;;;;;;;5063966;28;20058;-61
2023/09/30 06:34:53;;;;;;;62.10;24.67;;;;;;;;;;5049104;28;20112;-61
2023/09/30 06:37:19;;;;;;;62.60;24.27;;;;;;;;;;5060647;28;20083;-60
2023/09/30 06:39:45;;;;;;;52.70;23.40;;;;;;;;;;5055441;28;20071;-61
2023/09/30 06:42:11;;;;;;;44.57;21.73;;;;;;;;;;5052552;28;20418;-61
2023/09/30 06:44:37;;;;;;;50.07;20.80;;;;;;;;;;5046978;28;20045;-61
2023/09/30 06:47:04;;;;;;;49.73;22.63;;;;;;;;;;5064747;28;20090;-60
2023/09/30 06:49:30;;;;;;;61.27;25.60;;;;;;;;;;5060322;28;20045;-61
2023/09/30 06:51:56;;;;;;;54.20;23.67;;;;;;;;;;5068223;28;20045;-61
2023/09/30 06:54:23;;;;;;;58.47;24.30;;;;;;;;;;5067961;28;20047;-60
2023/09/30 06:56:49;;;;;;;44.90;21.53;;;;;;;;;;5067758;28;20052;-61
2023/09/30 06:59:15;;;;;;;42.93;21.77;;;;;;;;;;5067211;28;20036;-61
2023/09/30 07:01:41;;;;;;;55.60;25.60;;;;;;;;;;5067471;28;20044;-61
2023/09/30 07:04:07;;;;;;;46.07;21.17;;;;;;;;;;5053211;28;20059;-61
2023/09/30 07:06:33;;;;;;;44.40;20.83;;;;;;;;;;5056427;28;20090;-61
2023/09/30 07:08:59;;;;;;;47.83;22.57;;;;;;;;;;5067518;28;20053;-61
2023/09/30 07:11:29;;;;;;;48.27;20.97;;;;;;;;;;5067411;28;20119;-61
2023/09/30 07:13:56;;;;;;;58.57;24.10;;;;;;;;;;5063310;28;20166;-60
2023/09/30 07:16:22;;;;;;;51.70;20.77;;;;;;;;;;5052284;28;20099;-61
2023/09/30 07:18:48;;;;;;;37.97;19.47;;;;;;;;;;5049285;28;20156;-61
2023/09/30 07:21:14;;;;;;;38.93;19.47;;;;;;;;;;5047136;28;20128;-61
2023/09/30 07:23:41;;;;;;;37.50;20.17;;;;;;;;;;5047672;28;20091;-60
2023/09/30 07:26:07;;;;;;;34.47;17.77;;;;;;;;;;5047593;28;20057;-61
2023/09/30 07:28:33;;;;;;;35.47;16.97;;;;;;;;;;5046979;28;20446;-61
2023/09/30 07:30:59;;;;;;;37.50;19.83;;;;;;;;;;5056233;28;20049;-60
2023/09/30 07:33:25;;;;;;;34.13;17.40;;;;;;;;;;5060592;28;20171;-61
2023/09/30 07:35:51;;;;;;;34.20;17.50;;;;;;;;;;5061764;28;20147;-60
2023/09/30 07:38:18;;;;;;;33.27;17.37;;;;;;;;;;5066411;28;20092;-61
2023/09/30 07:40:44;;;;;;;35.00;18.10;;;;;;;;;;5050550;28;20517;-61
2023/09/30 07:43:10;;;;;;;37.97;20.00;;;;;;;;;;5062695;28;20036;-60
2023/09/30 07:45:36;;;;;;;40.30;19.73;;;;;;;;;;5066533;28;20508;-61
2023/09/30 07:48:05;;;;;;;37.83;19.10;;;;;;;;;;5065455;28;20040;-61
2023/09/30 07:50:31;;;;;;;36.63;17.73;;;;;;;;;;5059108;28;20044;-61
2023/09/30 07:52:58;;;;;;;30.27;17.57;;;;;;;;;;5054453;28;20045;-61
2023/09/30 07:55:24;;;;;;;37.97;19.03;;;;;;;;;;5046925;28;20187;-61
2023/09/30 07:57:50;;;;;;;37.83;18.23;;;;;;;;;;5047337;28;20123;-61
2023/09/30 08:00:16;;;;;;;32.07;16.77;;;;;;;;;;5046695;28;20439;-60
2023/09/30 08:02:43;;;;;;;34.20;18.17;;;;;;;;;;5046809;28;20045;-60
2023/09/30 08:05:09;;;;;;;31.57;17.60;;;;;;;;;;5045436;28;20533;-60
2023/09/30 08:07:35;;;;;;;37.60;17.43;;;;;;;;;;5046776;28;20047;-60
2023/09/30 08:10:04;;;;;;;32.50;17.07;;;;;;;;;;5065654;28;20159;-60
2023/09/30 08:12:30;;;;;;;31.07;17.27;;;;;;;;;;5070398;28;20056;-61
2023/09/30 08:14:57;;;;;;;29.13;17.03;;;;;;;;;;5055806;28;20411;-61
2023/09/30 08:17:23;;;;;;;36.30;18.90;;;;;;;;;;5049727;28;20497;-61
2023/09/30 08:19:49;;;;;;;28.27;16.63;;;;;;;;;;5050455;28;20044;-61
2023/09/30 08:22:15;;;;;;;25.23;15.70;;;;;;;;;;5050379;28;20071;-61
2023/09/30 08:24:41;;;;;;;34.97;16.53;;;;;;;;;;5050174;28;20061;-60
2023/09/30 08:27:07;;;;;;;33.70;17.60;;;;;;;;;;5049831;28;20132;-61
2023/09/30 08:29:36;;;;;;;30.27;15.90;;;;;;;;;;5051227;28;20123;-60
2023/09/30 08:32:02;;;;;;;30.57;15.33;;;;;;;;;;5070010;28;20053;-61
2023/09/30 08:34:28;;;;;;;24.13;15.07;;;;;;;;;;5070348;28;20094;-60
2023/09/30 08:36:54;;;;;;;25.03;14.23;;;;;;;;;;5068656;28;20469;-60
2023/09/30 08:39:20;;;;;;;25.60;13.83;;;;;;;;;;5069644;28;20060;-60
2023/09/30 08:41:46;;;;;;;23.90;14.00;;;;;;;;;;5070204;28;20045;-60
2023/09/30 08:44:12;;;;;;;23.77;13.43;;;;;;;;;;5069644;28;20043;-60
2023/09/30 08:46:39;;;;;;;28.40;12.90;;;;;;;;;;5070111;28;20048;-60
2023/09/30 08:49:06;;;;;;;19.83;13.13;;;;;;;;;;5069731;28;20451;-60
2023/09/30 08:51:32;;;;;;;18.17;11.63;;;;;;;;;;5068732;28;20127;-60
2023/09/30 08:53:59;;;;;;;19.47;11.17;;;;;;;;;;5069114;28;20041;-60
2023/09/30 08:56:28;;;;;;;17.00;9.63;;;;;;;;;;5069614;28;20052;-60
2023/09/30 08:58:57;;;;;;;19.30;9.63;;;;;;;;;;5069250;28;20059;-60
2023/09/30 09:01:24;;;;;;;16.07;8.73;;;;;;;;;;5070004;28;20159;-60
2023/09/30 09:03:52;;;;;;;15.40;9.57;;;;;;;;;;5068407;28;20044;-60
2023/09/30 09:06:19;;;;;;;16.33;8.43;;;;;;;;;;5068637;28;20049;-60
2023/09/30 09:08:45;;;;;;;14.67;8.83;;;;;;;;;;5049891;28;20041;-60
2023/09/30 09:11:11;;;;;;;12.10;7.37;;;;;;;;;;5051418;28;20072;-60
2023/09/30 09:13:58;;;;;;;17.80;9.00;;;;;;;;;;5049702;28;20522;-60
2023/09/30 09:16:25;;;;;;;16.47;8.57;;;;;;;;;;5051827;28;20049;-60
2023/09/30 09:18:51;;;;;;;13.47;8.50;;;;;;;;;;5048832;28;20055;-60
2023/09/30 09:21:19;;;;;;;14.63;7.73;;;;;;;;;;5058593;28;20037;-61
2023/09/30 09:23:46;;;;;;;15.03;8.30;;;;;;;;;;5056816;28;20048;-60
2023/09/30 09:26:26;;;;;;;15.27;7.90;;;;;;;;;;5049299;28;20454;-60
2023/09/30 09:28:59;;;;;;;14.27;7.70;;;;;;;;;;5050555;28;20128;-60
2023/09/30 09:31:27;;;;;;;16.90;8.77;;;;;;;;;;5059571;28;20054;-60
2023/09/30 09:33:56;;;;;;;14.63;7.30;;;;;;;;;;5068635;28;20045;-60
2023/09/30 09:36:38;;;;;;;12.70;7.37;;;;;;;;;;5050683;28;20049;-60
2023/09/30 09:39:04;;;;;;;15.07;7.88;;;;;;;;;;5069283;28;20498;-60
2023/09/30 09:41:31;;;;;;;16.13;7.00;;;;;;;;;;5058675;28;20100;-60
2023/09/30 09:43:58;;;;;;;16.87;7.47;;;;;;;;;;5052288;28;20052;-60
2023/09/30 09:46:25;;;;;;;12.07;7.63;;;;;;;;;;5068596;28;20044;-60
2023/09/30 09:48:53;;;;;;;13.37;6.43;;;;;;;;;;5068806;28;20052;-60
2023/09/30 09:51:20;;;;;;;18.03;7.17;;;;;;;;;;5068886;28;20098;-60
2023/09/30 09:53:48;;;;;;;14.93;6.97;;;;;;;;;;5067624;28;20053;-60
2023/09/30 09:56:14;;;;;;;12.30;6.40;;;;;;;;;;5053506;28;20388;-60
2023/09/30 09:58:42;;;;;;;14.97;6.43;;;;;;;;;;5068133;28;20060;-60
2023/09/30 10:01:09;;;;;;;12.87;7.13;;;;;;;;;;5055626;28;20059;-60
2023/09/30 10:03:36;;;;;;;12.93;7.17;;;;;;;;;;5048225;28;20049;-60
2023/09/30 10:06:02;;;;;;;15.87;6.43;;;;;;;;;;5065723;28;20105;-60
2023/09/30 10:08:31;;;;;;;14.17;6.23;;;;;;;;;;5067271;28;20041;-60
2023/09/30 10:10:59;;;;;;;15.13;6.17;;;;;;;;;;5057674;28;20094;-60
2023/09/30 10:13:45;;;;;;;11.73;5.77;;;;;;;;;;5046098;28;20136;-60
2023/09/30 10:16:31;;;;;;;12.37;5.17;;;;;;;;;;5048107;28;20059;-61
2023/09/30 10:19:10;;;;;;;13.47;5.83;;;;;;;;;;5053969;28;20045;-60
2023/09/30 10:21:36;;;;;;;14.60;5.73;;;;;;;;;;5053414;28;20156;-60
2023/09/30 10:24:21;;;;;;;12.43;5.20;;;;;;;;;;5052238;28;20086;-60
2023/09/30 10:26:47;;;;;;;12.90;5.13;;;;;;;;;;5054030;28;20045;-60
2023/09/30 10:29:13;;;;;;;11.70;3.63;;;;;;;;;;5058652;28;20040;-60
2023/09/30 10:31:52;;;;;;;13.50;3.43;;;;;;;;;;5068136;28;20095;-61
2023/09/30 10:34:21;;;;;;;10.00;3.80;;;;;;;;;;5067143;28;20041;-60
2023/09/30 10:36:50;;;;;;;14.90;4.60;;;;;;;;;;5067954;28;20096;-60
2023/09/30 10:39:36;;;;;;;15.03;4.67;;;;;;;;;;5067886;28;20139;-61
2023/09/30 10:42:02;;;;;;;22.77;4.50;;;;;;;;;;5067584;28;20131;-61
2023/09/30 10:44:31;;;;;;;10.53;3.83;;;;;;;;;;5067444;28;20048;-61
2023/09/30 10:47:21;;;;;;;9.00;3.27;;;;;;;;;;5067671;28;20049;-60
2023/09/30 10:49:47;;;;;;;9.47;2.60;;;;;;;;;;5067639;28;20047;-61
2023/09/30 10:52:22;;;;;;;15.40;3.60;;;;;;;;;;5056394;28;20033;-61
2023/09/30 10:54:48;;;;;;;11.33;3.70;;;;;;;;;;5050579;28;20147;-60
2023/09/30 10:57:27;;;;;;;9.80;2.33;;;;;;;;;;5047954;28;20084;-61
2023/09/30 11:00:08;;;;;;;8.17;2.37;;;;;;;;;;5047861;28;20080;-61
2023/09/30 11:02:34;;;;;;;8.87;3.60;;;;;;;;;;5047593;28;20103;-60
2023/09/30 11:05:08;;;;;;;7.97;2.60;;;;;;;;;;5047606;28;20415;-61
2023/09/30 11:07:35;;;;;;;11.30;2.60;;;;;;;;;;5047041;28;20068;-60
2023/09/30 11:10:02;;;;;;;7.80;2.47;;;;;;;;;;5047487;28;20084;-60
2023/09/30 11:12:28;;;;;;;9.80;2.70;;;;;;;;;;5047496;28;20040;-61
2023/09/30 11:15:01;;;;;;;7.90;2.83;;;;;;;;;;5047830;28;20045;-61
2023/09/30 11:17:27;;;;;;;5.60;2.07;;;;;;;;;;5047529;28;20132;-60
2023/09/30 11:19:54;;;;;;;8.80;2.57;;;;;;;;;;5047063;28;20140;-61
2023/09/30 11:22:21;;;;;;;7.70;2.23;;;;;;;;;;5047407;28;20044;-60
2023/09/30 11:24:47;;;;;;;6.03;2.33;;;;;;;;;;5047469;28;20045;-61
2023/09/30 11:27:13;;;;;;;7.60;2.60;;;;;;;;;;5047235;28;20058;-60
2023/09/30 11:29:51;;;;;;;6.82;2.00;;;;;;;;;;5047412;28;20082;-61
2023/09/30 11:32:28;;;;;;;9.68;2.30;;;;;;;;;;5046967;28;20056;-61
2023/09/30 11:34:54;;;;;;;7.90;2.60;;;;;;;;;;5046781;28;20124;-61
2023/09/30 11:37:24;;;;;;;8.75;2.38;;;;;;;;;;5049659;28;20125;-61
2023/09/30 11:39:50;;;;;;;9.20;2.00;;;;;;;;;;5047038;28;20041;-61
2023/09/30 11:42:20;;;;;;;8.50;2.03;;;;;;;;;;5047373;28;20049;-61
2023/09/30 11:44:50;;;;;;;8.13;1.92;;;;;;;;;;5049174;28;20049;-61
2023/09/30 11:47:16;;;;;;;8.63;2.67;;;;;;;;;;5050582;28;20056;-61
2023/09/30 11:49:48;;;;;;;12.18;2.60;;;;;;;;;;5050734;28;20155;-61
2023/09/30 11:52:15;;;;;;;8.30;2.10;;;;;;;;;;5050816;28;20045;-61
2023/09/30 11:54:43;;;;;;;8.63;2.50;;;;;;;;;;5057418;28;20164;-61
2023/09/30 11:57:10;;;;;;;8.13;2.73;;;;;;;;;;5070592;28;20044;-61
2023/09/30 11:59:37;;;;;;;9.68;2.45;;;;;;;;;;5069709;28;20075;-61
2023/09/30 12:02:05;;;;;;;7.90;2.63;;;;;;;;;;5070967;28;20558;-61
2023/09/30 12:04:31;;;;;;;7.13;2.20;;;;;;;;;;5070970;28;20128;-62
2023/09/30 12:06:57;;;;;;;9.50;2.75;;;;;;;;;;5066913;28;20088;-63
2023/09/30 12:09:26;;;;;;;8.93;2.08;;;;;;;;;;5050223;28;20056;-62
2023/09/30 12:11:53;;;;;;;7.75;2.25;;;;;;;;;;5050858;28;20490;-61
2023/09/30 12:14:19;;;;;;;10.18;2.50;;;;;;;;;;5050250;28;20055;-61
2023/09/30 12:16:45;;;;;;;6.88;2.00;;;;;;;;;;5050423;28;20041;-61
2023/09/30 12:19:13;;;;;;;8.15;2.60;;;;;;;;;;5058515;28;20048;-61
2023/09/30 12:21:40;;;;;;;7.60;1.83;;;;;;;;;;5066584;28;20439;-61
2023/09/30 12:24:07;;;;;;;9.25;2.20;;;;;;;;;;5066871;28;20119;-61
2023/09/30 12:26:34;;;;;;;6.50;2.08;;;;;;;;;;5070093;28;20044;-62
2023/09/30 12:29:00;;;;;;;7.10;2.15;;;;;;;;;;5069147;28;20467;-62
2023/09/30 12:31:26;;;;;;;7.10;1.98;;;;;;;;;;5069753;28;20048;-61
2023/09/30 12:33:53;;;;;;;7.35;2.30;;;;;;;;;;5065789;28;20044;-61
2023/09/30 12:36:20;;;;;;;7.90;2.38;;;;;;;;;;5058340;28;20041;-61
2023/09/30 12:38:46;;;;;;;9.27;2.88;;;;;;;;;;5064628;28;20044;-61
2023/09/30 12:41:14;;;;;;;6.82;2.20;;;;;;;;;;5054010;28;20045;-61
2023/09/30 12:43:41;;;;;;;8.65;2.40;;;;;;;;;;5065451;28;20048;-61
2023/09/30 12:46:07;;;;;;;6.78;2.35;;;;;;;;;;5067905;28;20055;-61
2023/09/30 12:48:34;;;;;;;7.93;2.72;;;;;;;;;;5068616;28;20253;-62
2023/09/30 12:51:00;;;;;;;6.43;2.30;;;;;;;;;;5068801;28;20053;-61
2023/09/30 12:53:26;;;;;;;8.18;2.65;;;;;;;;;;5068280;28;20049;-61
2023/09/30 12:55:52;;;;;;;6.30;2.00;;;;;;;;;;5063347;28;20049;-62
2023/09/30 12:58:18;;;;;;;9.43;2.25;;;;;;;;;;5055156;28;20048;-61
2023/09/30 13:00:44;;;;;;;6.80;2.60;;;;;;;;;;5069959;28;20063;-61
2023/09/30 13:03:12;;;;;;;7.40;2.38;;;;;;;;;;5064109;28;20037;-62
2023/09/30 13:05:38;;;;;;;7.28;2.00;;;;;;;;;;5049054;28;20044;-61
2023/09/30 13:08:04;;;;;;;8.35;2.78;;;;;;;;;;5049495;28;20506;-61
2023/09/30 13:10:30;;;;;;;6.65;2.15;;;;;;;;;;5053409;28;20048;-61
2023/09/30 13:12:57;;;;;;;7.68;2.35;;;;;;;;;;5054973;28;20447;-61
2023/09/30 13:15:26;;;;;;;7.53;2.20;;;;;;;;;;5068547;28;20127;-61
2023/09/30 13:17:52;;;;;;;11.13;2.45;;;;;;;;;;5055235;28;20488;-61
2023/09/30 13:20:18;;;;;;;8.93;2.30;;;;;;;;;;5049195;28;20513;-62
2023/09/30 13:22:45;;;;;;;4.82;1.92;;;;;;;;;;5051091;28;20040;-61
2023/09/30 13:25:15;;;;;;;10.32;2.42;;;;;;;;;;5049166;28;20139;-61
2023/09/30 13:27:43;;;;;;;8.48;3.28;;;;;;;;;;5068871;28;20426;-61
2023/09/30 13:30:09;;;;;;;5.63;2.00;;;;;;;;;;5068968;28;20052;-61
2023/09/30 13:32:39;;;;;;;8.77;2.50;;;;;;;;;;5067602;28;20048;-61
2023/09/30 13:35:05;;;;;;;9.23;2.50;;;;;;;;;;5069143;28;20159;-61
2023/09/30 13:37:33;;;;;;;7.15;2.10;;;;;;;;;;5067400;28;20470;-61
2023/09/30 13:40:02;;;;;;;6.32;2.05;;;;;;;;;;5068705;28;20044;-61
2023/09/30 13:42:28;;;;;;;6.63;2.85;;;;;;;;;;5068841;28;20403;-61
2023/09/30 13:44:57;;;;;;;4.70;1.80;;;;;;;;;;5068831;28;20524;-62
2023/09/30 13:47:23;;;;;;;7.63;2.15;;;;;;;;;;5068425;28;20051;-62
2023/09/30 13:49:49;;;;;;;11.00;3.25;;;;;;;;;;5068449;28;20055;-61
2023/09/30 13:52:15;;;;;;;7.13;2.25;;;;;;;;;;5068921;28;20052;-61
2023/09/30 13:54:41;;;;;;;6.15;2.22;;;;;;;;;;5068517;28;20064;-61
2023/09/30 13:57:07;;;;;;;7.40;2.00;;;;;;;;;;5068297;28;20487;-61
2023/09/30 13:59:36;;;;;;;10.43;2.88;;;;;;;;;;5068557;28;20499;-61
2023/09/30 14:02:03;;;;;;;7.95;2.50;;;;;;;;;;5068661;28;20044;-61
2023/09/30 14:04:33;;;;;;;6.43;2.55;;;;;;;;;;5067837;28;20076;-61
2023/09/30 14:07:02;;;;;;;10.35;2.80;;;;;;;;;;5068012;28;20170;-61
2023/09/30 14:09:28;;;;;;;7.97;2.53;;;;;;;;;;5068247;28;20048;-61
2023/09/30 14:11:54;;;;;;;9.43;2.30;;;;;;;;;;5068523;28;20044;-61
2023/09/30 14:14:21;;;;;;;5.35;2.03;;;;;;;;;;5067946;28;20044;-61
2023/09/30 14:16:47;;;;;;;6.00;2.17;;;;;;;;;;5067690;28;20418;-61
2023/09/30 14:19:13;;;;;;;10.32;2.70;;;;;;;;;;5068289;28;20086;-61
2023/09/30 14:21:40;;;;;;;10.27;2.40;;;;;;;;;;5067911;28;20040;-61
2023/09/30 14:24:06;;;;;;;8.15;2.00;;;;;;;;;;5068063;28;20446;-61
2023/09/30 14:26:33;;;;;;;7.78;2.28;;;;;;;;;;5068106;28;20410;-61